Time;durP1;ratioP1;P1;durP2;ratioP2;P2;SDS_P1;SDS_P2;PMS_P1;PMS_P2;Temp;Humidity;BMP_temperature;BMP_pressure;BME280_temperature;BME280_humidity;BME280_pressure;Samples;Min_cycle;Max_cycle;Signal;HPM_P1;HPM_P2
2024/01/05 00:02:26;;;;;;;2.23;2.03;;;3.10;99.90;;;;;;5088423;28;20227;-77
2024/01/05 00:04:54;;;;;;;1.93;1.70;;;3.10;99.90;;;;;;5088612;28;20301;-76
2024/01/05 00:07:21;;;;;;;1.90;1.80;;;3.10;99.90;;;;;;5088000;28;20317;-76
2024/01/05 00:09:48;;;;;;;1.77;1.60;;;3.10;99.90;;;;;;5087804;28;20238;-76
2024/01/05 00:12:15;;;;;;;2.10;1.90;;;3.10;99.90;;;;;;5088234;28;20238;-79
2024/01/05 00:14:42;;;;;;;1.80;1.70;;;3.10;99.90;;;;;;5088339;28;20704;-80
2024/01/05 00:17:09;;;;;;;2.27;1.70;;;3.10;99.90;;;;;;5088316;28;20325;-79
2024/01/05 00:19:39;;;;;;;1.80;1.70;;;3.20;99.90;;;;;;5088059;28;20207;-79
2024/01/05 00:22:07;;;;;;;1.83;1.73;;;3.10;99.90;;;;;;5087993;28;20297;-79
2024/01/05 00:24:36;;;;;;;1.53;1.43;;;3.20;99.90;;;;;;5088408;28;20281;-79
2024/01/05 00:27:04;;;;;;;1.73;1.63;;;3.20;99.90;;;;;;5088244;28;20299;-79
2024/01/05 00:29:30;;;;;;;1.80;1.70;;;3.10;99.90;;;;;;5087689;28;20764;-77
2024/01/05 00:31:57;;;;;;;1.70;1.60;;;3.10;99.90;;;;;;5087830;28;20229;-77
2024/01/05 00:34:24;;;;;;;1.87;1.77;;;3.20;99.90;;;;;;5087742;28;20217;-77
2024/01/05 00:36:51;;;;;;;1.70;1.60;;;3.20;99.90;;;;;;5087324;28;20305;-77
2024/01/05 00:39:19;;;;;;;1.50;1.40;;;3.20;99.90;;;;;;5087186;28;20238;-78
2024/01/05 00:41:47;;;;;;;2.20;2.00;;;3.20;99.90;;;;;;5087783;28;20226;-78
2024/01/05 00:44:14;;;;;;;1.83;1.63;;;3.10;99.90;;;;;;5087554;28;20209;-78
2024/01/05 00:46:41;;;;;;;1.70;1.60;;;3.10;99.90;;;;;;5087211;28;20737;-77
2024/01/05 00:49:08;;;;;;;1.80;1.70;;;3.10;99.90;;;;;;5087575;28;20297;-78
2024/01/05 00:51:35;;;;;;;2.53;2.00;;;3.10;99.90;;;;;;5087824;28;20226;-77
2024/01/05 00:54:01;;;;;;;2.20;2.00;;;3.10;99.90;;;;;;5087777;28;20207;-78
2024/01/05 00:56:30;;;;;;;2.57;2.37;;;3.10;99.90;;;;;;5087699;28;20297;-77
2024/01/05 00:58:56;;;;;;;2.40;2.20;;;3.10;99.90;;;;;;5087723;28;20217;-76
2024/01/05 01:01:23;;;;;;;2.00;1.83;;;3.10;99.90;;;;;;5087781;28;20207;-77
2024/01/05 01:03:50;;;;;;;2.63;2.40;;;3.10;99.90;;;;;;5088017;28;20269;-76
2024/01/05 01:06:17;;;;;;;2.30;2.10;;;3.10;99.90;;;;;;5087737;28;20289;-76
2024/01/05 01:08:44;;;;;;;2.87;2.37;;;3.10;99.90;;;;;;5087274;28;20332;-77
2024/01/05 01:11:14;;;;;;;2.90;2.60;;;3.10;99.90;;;;;;5087854;28;20293;-77
2024/01/05 01:13:43;;;;;;;2.23;2.03;;;3.10;99.90;;;;;;5087662;28;20205;-77
2024/01/05 01:16:09;;;;;;;2.70;2.50;;;3.10;99.90;;;;;;5087550;28;20293;-77
2024/01/05 01:18:36;;;;;;;2.60;2.40;;;3.10;99.90;;;;;;5087590;28;20290;-77
2024/01/05 01:21:04;;;;;;;2.63;2.43;;;3.10;99.90;;;;;;5087671;28;20579;-77
2024/01/05 01:23:31;;;;;;;2.13;2.03;;;3.00;99.90;;;;;;5087019;28;20207;-78
2024/01/05 01:25:58;;;;;;;3.80;2.43;;;3.10;99.90;;;;;;5087483;28;20226;-77
2024/01/05 01:28:25;;;;;;;2.13;2.00;;;3.10;99.90;;;;;;5087626;28;20266;-77
2024/01/05 01:30:53;;;;;;;2.60;2.40;;;3.10;99.90;;;;;;5077348;28;20230;-77
2024/01/05 01:33:20;;;;;;;2.33;2.13;;;3.10;99.90;;;;;;5087612;28;20305;-78
2024/01/05 01:35:47;;;;;;;2.27;2.07;;;3.10;99.90;;;;;;5087251;28;20685;-78
2024/01/05 01:38:14;;;;;;;3.40;2.30;;;3.10;99.90;;;;;;5086849;28;20293;-77
2024/01/05 01:40:45;;;;;;;2.40;2.20;;;3.10;99.90;;;;;;5087103;28;20203;-78
2024/01/05 01:43:19;;;;;;;2.40;2.20;;;3.10;99.90;;;;;;5087369;28;20289;-78
2024/01/05 01:45:46;;;;;;;2.20;2.10;;;3.10;99.90;;;;;;5087174;28;20193;-77
2024/01/05 01:48:15;;;;;;;2.77;2.30;;;3.10;99.90;;;;;;5090954;28;20784;-77
2024/01/05 01:50:42;;;;;;;2.40;2.30;;;3.10;99.90;;;;;;5091228;28;20636;-77
2024/01/05 01:53:10;;;;;;;2.97;2.10;;;3.10;99.90;;;;;;5090202;28;20966;-77
2024/01/05 01:55:37;;;;;;;2.70;2.07;;;3.10;99.90;;;;;;5091210;28;20616;-76
2024/01/05 01:58:04;;;;;;;2.30;2.10;;;3.10;99.90;;;;;;5091151;28;20213;-76
2024/01/05 02:00:32;;;;;;;2.20;2.10;;;3.10;99.90;;;;;;5090784;28;20230;-76
2024/01/05 02:02:59;;;;;;;3.03;2.30;;;3.00;99.90;;;;;;5090747;28;20262;-77
2024/01/05 02:05:29;;;;;;;2.17;2.00;;;3.00;99.90;;;;;;5090811;28;20256;-77
2024/01/05 02:07:56;;;;;;;2.50;2.30;;;3.00;99.90;;;;;;5090801;28;20607;-78
2024/01/05 02:10:24;;;;;;;2.30;2.20;;;3.00;99.90;;;;;;5090555;28;20649;-78
2024/01/05 02:12:51;;;;;;;2.50;2.20;;;3.10;99.90;;;;;;5090314;28;20579;-78
2024/01/05 02:15:18;;;;;;;2.07;1.97;;;3.00;99.90;;;;;;5090871;28;20305;-78
2024/01/05 02:17:45;;;;;;;2.40;2.20;;;3.10;99.90;;;;;;5084356;28;20537;-79
2024/01/05 02:20:12;;;;;;;2.40;2.20;;;3.00;99.90;;;;;;5077453;28;20214;-78
2024/01/05 02:22:44;;;;;;;2.63;2.00;;;3.00;99.90;;;;;;5090417;28;20209;-78
2024/01/05 02:25:12;;;;;;;2.47;2.13;;;3.00;99.90;;;;;;5090178;28;20210;-77
2024/01/05 02:27:40;;;;;;;2.23;1.90;;;3.00;99.90;;;;;;5090180;28;20310;-77
2024/01/05 02:30:08;;;;;;;2.33;2.13;;;3.10;99.90;;;;;;5090502;28;20635;-78
2024/01/05 02:32:35;;;;;;;2.70;2.50;;;3.10;99.90;;;;;;5090208;28;20728;-77
2024/01/05 02:35:01;;;;;;;2.43;2.10;;;3.10;99.90;;;;;;5090016;28;20217;-77
2024/01/05 02:37:30;;;;;;;2.10;2.00;;;3.10;99.90;;;;;;5089810;28;20201;-77
2024/01/05 02:39:56;;;;;;;2.70;2.00;;;3.10;99.90;;;;;;5090049;28;20198;-77
2024/01/05 02:42:25;;;;;;;2.00;1.90;;;3.00;99.90;;;;;;5089704;28;20302;-77
2024/01/05 02:44:52;;;;;;;3.77;2.10;;;3.00;99.90;;;;;;5089732;28;20209;-77
2024/01/05 02:47:18;;;;;;;2.00;1.90;;;3.00;99.90;;;;;;5089721;28;20234;-78
2024/01/05 02:49:45;;;;;;;2.43;2.20;;;3.00;99.90;;;;;;5090210;28;20284;-77
2024/01/05 02:52:12;;;;;;;2.30;2.10;;;3.00;99.90;;;;;;5089684;28;20297;-77
2024/01/05 02:54:39;;;;;;;2.30;2.10;;;3.00;99.90;;;;;;5089743;28;20285;-74
2024/01/05 02:57:06;;;;;;;2.13;1.90;;;3.00;99.90;;;;;;5089628;28;20662;-75
2024/01/05 02:59:34;;;;;;;2.10;2.00;;;3.00;99.90;;;;;;5088739;28;20202;-75
2024/01/05 03:02:02;;;;;;;2.23;1.87;;;3.00;99.90;;;;;;5089695;28;20309;-75
2024/01/05 03:04:28;;;;;;;2.30;2.10;;;3.00;99.90;;;;;;5089494;28;20214;-75
2024/01/05 03:06:55;;;;;;;3.07;2.03;;;3.00;99.90;;;;;;5088392;28;20773;-76
2024/01/05 03:09:22;;;;;;;2.17;1.93;;;3.00;99.90;;;;;;5088383;28;20603;-75
2024/01/05 03:11:49;;;;;;;2.27;2.00;;;3.00;99.90;;;;;;5089095;28;20199;-75
2024/01/05 03:14:16;;;;;;;2.53;2.00;;;3.10;99.90;;;;;;5088935;28;20317;-75
2024/01/05 03:16:44;;;;;;;2.17;1.97;;;3.10;99.90;;;;;;5089206;28;20317;-77
2024/01/05 03:19:11;;;;;;;2.27;2.07;;;3.10;99.90;;;;;;5089289;28;20221;-80
2024/01/05 03:21:38;;;;;;;2.20;2.00;;;3.10;99.90;;;;;;5089514;28;20210;-77
2024/01/05 03:24:06;;;;;;;2.70;2.10;;;3.10;99.90;;;;;;5089527;28;20230;-77
2024/01/05 03:26:33;;;;;;;4.03;2.27;;;3.10;99.90;;;;;;5087545;28;20317;-77
2024/01/05 03:28:59;;;;;;;2.60;2.40;;;3.10;99.90;;;;;;5086870;28;20226;-77
2024/01/05 03:31:26;;;;;;;2.90;2.20;;;3.10;99.90;;;;;;5087090;28;20202;-76
2024/01/05 03:33:54;;;;;;;2.90;2.30;;;3.10;99.90;;;;;;5087068;28;20271;-76
2024/01/05 03:36:21;;;;;;;2.53;2.30;;;3.10;99.90;;;;;;5087704;28;20730;-77
2024/01/05 03:38:48;;;;;;;3.73;2.33;;;3.10;99.90;;;;;;5087398;28;20264;-77
2024/01/05 03:41:15;;;;;;;2.50;2.30;;;3.10;99.90;;;;;;5087661;28;20217;-77
2024/01/05 03:43:42;;;;;;;2.27;2.07;;;3.10;99.90;;;;;;5087282;28;20285;-77
2024/01/05 03:46:11;;;;;;;1.97;1.87;;;3.10;99.90;;;;;;5086982;28;20421;-77
2024/01/05 03:48:38;;;;;;;2.30;2.10;;;3.10;99.90;;;;;;5086727;28;20241;-77
2024/01/05 03:51:07;;;;;;;2.73;2.47;;;3.10;99.90;;;;;;5087217;28;20261;-77
2024/01/05 03:53:34;;;;;;;2.40;2.20;;;3.10;99.90;;;;;;5086663;28;20661;-77
2024/01/05 03:56:01;;;;;;;2.50;2.30;;;3.10;99.90;;;;;;5087062;28;20298;-77
2024/01/05 03:58:28;;;;;;;2.30;2.20;;;3.10;99.90;;;;;;5086727;28;20226;-77
2024/01/05 04:00:55;;;;;;;3.43;2.40;;;3.10;99.90;;;;;;5087753;28;20362;-77
2024/01/05 04:03:23;;;;;;;2.30;2.10;;;3.10;99.90;;;;;;5088491;28;20230;-77
2024/01/05 04:05:49;;;;;;;2.40;2.20;;;3.10;99.90;;;;;;5088180;28;20603;-78
2024/01/05 04:08:18;;;;;;;2.30;2.10;;;3.10;99.90;;;;;;5087441;28;20666;-77
2024/01/05 04:10:44;;;;;;;2.40;2.20;;;3.10;99.90;;;;;;5087558;28;20230;-77
2024/01/05 04:13:11;;;;;;;2.93;2.20;;;3.10;99.90;;;;;;5088126;28;20286;-77
2024/01/05 04:15:39;;;;;;;2.20;2.00;;;3.10;99.90;;;;;;5088606;28;20524;-77
2024/01/05 04:18:07;;;;;;;2.90;2.10;;;3.10;99.90;;;;;;5088082;28;20210;-77
2024/01/05 04:20:35;;;;;;;2.17;2.00;;;3.10;99.90;;;;;;5088228;28;20256;-77
2024/01/05 04:23:02;;;;;;;1.93;1.83;;;3.00;99.90;;;;;;5088360;28;20301;-77
2024/01/05 04:25:31;;;;;;;2.43;2.23;;;3.00;99.90;;;;;;5088186;28;20297;-77
2024/01/05 04:27:58;;;;;;;2.80;2.40;;;3.00;99.90;;;;;;5088526;28;20202;-77
2024/01/05 04:30:25;;;;;;;2.20;2.00;;;3.10;99.90;;;;;;5088317;28;20291;-77
2024/01/05 04:32:52;;;;;;;1.80;1.70;;;3.10;99.90;;;;;;5087814;28;20215;-78
2024/01/05 04:35:19;;;;;;;2.17;2.00;;;3.00;99.90;;;;;;5087984;28;20238;-77
2024/01/05 04:37:46;;;;;;;1.80;1.70;;;3.10;99.90;;;;;;5087694;28;20287;-78
2024/01/05 04:40:13;;;;;;;2.50;2.30;;;3.10;99.90;;;;;;5087678;28;20246;-77
2024/01/05 04:42:41;;;;;;;3.10;2.10;;;3.00;99.90;;;;;;5087733;28;20218;-77
2024/01/05 04:45:10;;;;;;;2.10;1.90;;;3.10;99.90;;;;;;5087933;28;20301;-77
2024/01/05 04:47:37;;;;;;;2.10;1.90;;;3.10;99.90;;;;;;5088488;28;20587;-77
2024/01/05 04:50:04;;;;;;;2.17;2.07;;;3.10;99.90;;;;;;5088020;28;20701;-77
2024/01/05 04:52:34;;;;;;;1.80;1.67;;;3.00;99.90;;;;;;5087774;28;20256;-77
2024/01/05 04:55:01;;;;;;;2.30;2.10;;;3.00;99.90;;;;;;5087813;28;20211;-77
2024/01/05 04:57:28;;;;;;;2.10;1.90;;;3.00;99.90;;;;;;5087977;28;20282;-77
2024/01/05 04:59:56;;;;;;;1.97;1.80;;;3.00;99.90;;;;;;5087741;28;20238;-77
2024/01/05 05:02:23;;;;;;;2.07;1.97;;;2.90;99.90;;;;;;5087468;28;20251;-77
2024/01/05 05:04:50;;;;;;;2.50;2.30;;;2.90;99.90;;;;;;5087874;28;20229;-77
2024/01/05 05:07:17;;;;;;;2.23;2.03;;;2.90;99.90;;;;;;5087447;28;20214;-79
2024/01/05 05:09:44;;;;;;;2.87;2.00;;;2.80;99.90;;;;;;5086779;28;20299;-77
2024/01/05 05:12:11;;;;;;;2.60;2.10;;;2.80;99.90;;;;;;5087665;28;20210;-77
2024/01/05 05:14:39;;;;;;;2.17;2.00;;;2.80;99.90;;;;;;5087697;28;20285;-77
2024/01/05 05:17:08;;;;;;;2.57;2.30;;;2.80;99.90;;;;;;5087409;28;20202;-77
2024/01/05 05:19:35;;;;;;;2.40;2.20;;;2.80;99.90;;;;;;5087729;28;20245;-77
2024/01/05 05:22:02;;;;;;;2.10;1.90;;;2.80;99.90;;;;;;5087549;28;20207;-77
2024/01/05 05:24:29;;;;;;;2.47;2.23;;;2.80;99.90;;;;;;5087219;28;20314;-77
2024/01/05 05:26:56;;;;;;;2.60;2.40;;;2.80;99.90;;;;;;5087870;28;20293;-77
2024/01/05 05:29:23;;;;;;;2.37;2.10;;;2.80;99.90;;;;;;5086992;28;20234;-77
2024/01/05 05:31:50;;;;;;;2.50;2.30;;;2.80;99.90;;;;;;5087304;28;20306;-77
2024/01/05 05:34:18;;;;;;;2.40;2.20;;;2.80;99.90;;;;;;5087413;28;20305;-77
2024/01/05 05:36:45;;;;;;;2.60;2.40;;;2.80;99.90;;;;;;5087025;28;20702;-77
2024/01/05 05:39:12;;;;;;;2.77;2.20;;;2.80;99.90;;;;;;5086997;28;20285;-77
2024/01/05 05:41:39;;;;;;;3.23;2.50;;;2.80;99.90;;;;;;5087656;28;20314;-77
2024/01/05 05:44:05;;;;;;;2.67;2.47;;;2.80;99.90;;;;;;5087434;28;20293;-78
2024/01/05 05:46:32;;;;;;;2.80;2.27;;;2.70;99.90;;;;;;5086717;28;20322;-77
2024/01/05 05:48:59;;;;;;;2.03;1.93;;;2.80;99.90;;;;;;5087284;28;20314;-77
2024/01/05 05:51:28;;;;;;;4.40;2.30;;;2.80;99.90;;;;;;5086738;28;20302;-77
2024/01/05 05:53:55;;;;;;;2.40;2.20;;;2.70;99.90;;;;;;5086710;28;20293;-77
2024/01/05 05:56:22;;;;;;;2.80;2.40;;;2.70;99.90;;;;;;5087000;28;20641;-77
2024/01/05 05:58:49;;;;;;;3.00;2.70;;;2.70;99.90;;;;;;5085339;28;20656;-78
2024/01/05 06:01:16;;;;;;;4.70;2.37;;;2.70;99.90;;;;;;5085371;28;20205;-77
2024/01/05 06:03:44;;;;;;;3.07;2.80;;;2.70;99.90;;;;;;5087197;28;20241;-77
2024/01/05 06:06:18;;;;;;;3.97;2.77;;;2.70;99.90;;;;;;5086777;28;20323;-78
2024/01/05 06:08:46;;;;;;;2.97;2.77;;;2.70;99.90;;;;;;5086648;28;20333;-77
2024/01/05 06:11:15;;;;;;;2.90;2.67;;;2.70;99.90;;;;;;5087050;28;20758;-77
2024/01/05 06:13:42;;;;;;;3.23;2.70;;;2.70;99.90;;;;;;5071591;28;20235;-77
2024/01/05 06:16:09;;;;;;;2.77;2.50;;;2.70;99.90;;;;;;5066843;28;20200;-78
2024/01/05 06:18:37;;;;;;;2.67;2.47;;;2.70;99.90;;;;;;5066560;28;20744;-77
2024/01/05 06:21:04;;;;;;;3.77;2.50;;;2.80;99.90;;;;;;5075695;28;20987;-77
2024/01/05 06:23:31;;;;;;;3.20;2.90;;;2.80;99.90;;;;;;5086557;28;20293;-77
2024/01/05 06:25:59;;;;;;;3.27;2.97;;;2.80;99.90;;;;;;5087167;28;20214;-77
2024/01/05 06:28:26;;;;;;;2.27;2.07;;;2.70;99.90;;;;;;5086826;28;20264;-77
2024/01/05 06:30:54;;;;;;;3.57;2.67;;;2.70;99.90;;;;;;5086581;28;20298;-76
2024/01/05 06:33:21;;;;;;;2.57;2.37;;;2.70;99.90;;;;;;5087871;28;20213;-77
2024/01/05 06:35:49;;;;;;;2.77;2.57;;;2.70;99.90;;;;;;5090487;28;20661;-77
2024/01/05 06:38:16;;;;;;;2.70;2.50;;;2.70;99.90;;;;;;5090094;28;20549;-77
2024/01/05 06:40:42;;;;;;;2.47;2.37;;;2.70;99.90;;;;;;5090478;28;20665;-77
2024/01/05 06:43:11;;;;;;;4.20;2.60;;;2.70;99.90;;;;;;5089887;28;20297;-77
2024/01/05 06:45:38;;;;;;;2.40;2.27;;;2.70;99.90;;;;;;5090050;28;20291;-78
2024/01/05 06:48:06;;;;;;;4.07;2.50;;;2.70;99.90;;;;;;5090092;28;20211;-78
2024/01/05 06:50:33;;;;;;;5.23;2.53;;;2.70;99.90;;;;;;5085414;28;20278;-78
2024/01/05 06:53:00;;;;;;;3.63;3.03;;;2.70;99.90;;;;;;5075313;28;20704;-78
2024/01/05 06:55:27;;;;;;;3.33;2.57;;;2.60;99.90;;;;;;5069778;28;20696;-78
2024/01/05 06:57:54;;;;;;;4.70;2.80;;;2.60;99.90;;;;;;5069688;28;20720;-77
2024/01/05 07:00:22;;;;;;;5.43;3.27;;;2.60;99.90;;;;;;5069375;28;21025;-77
2024/01/05 07:02:49;;;;;;;3.30;3.00;;;2.60;99.90;;;;;;5087744;28;20258;-77
2024/01/05 07:05:16;;;;;;;3.20;2.97;;;2.50;99.90;;;;;;5089998;28;20294;-78
2024/01/05 07:07:43;;;;;;;4.87;3.23;;;2.50;99.90;;;;;;5089189;28;20203;-77
2024/01/05 07:10:10;;;;;;;5.27;3.43;;;2.50;99.90;;;;;;5071908;28;20718;-79
2024/01/05 07:12:38;;;;;;;4.67;3.13;;;2.40;99.90;;;;;;5069414;28;20739;-78
2024/01/05 07:15:06;;;;;;;3.97;3.23;;;2.40;99.90;;;;;;5069606;28;20728;-77
2024/01/05 07:17:34;;;;;;;3.63;3.33;;;2.40;99.90;;;;;;5069675;28;20247;-77
2024/01/05 07:20:01;;;;;;;3.40;3.10;;;2.30;99.90;;;;;;5069395;28;20834;-77
2024/01/05 07:22:28;;;;;;;3.23;3.03;;;2.30;99.90;;;;;;5069488;28;20211;-77
2024/01/05 07:24:55;;;;;;;3.57;3.27;;;2.30;99.90;;;;;;5083565;28;20210;-77
2024/01/05 07:27:21;;;;;;;3.67;3.40;;;2.20;99.90;;;;;;5089287;28;20757;-77
2024/01/05 07:29:48;;;;;;;4.17;3.70;;;2.20;99.90;;;;;;5089395;28;20251;-77
2024/01/05 07:32:15;;;;;;;4.10;3.80;;;2.20;99.90;;;;;;5089311;28;20314;-77
2024/01/05 07:34:44;;;;;;;6.03;3.30;;;2.30;99.90;;;;;;5089460;28;20623;-77
2024/01/05 07:37:11;;;;;;;3.53;3.23;;;2.30;99.90;;;;;;5089163;28;20302;-77
2024/01/05 07:39:38;;;;;;;4.50;3.43;;;2.20;99.90;;;;;;5088845;28;20965;-78
2024/01/05 07:42:05;;;;;;;3.93;3.53;;;2.20;99.90;;;;;;5088924;28;20286;-77
2024/01/05 07:44:32;;;;;;;3.67;3.17;;;2.20;99.90;;;;;;5088533;28;20207;-78
2024/01/05 07:46:59;;;;;;;3.43;3.23;;;2.20;99.90;;;;;;5088911;28;20202;-78
2024/01/05 07:49:26;;;;;;;4.50;3.47;;;2.20;99.90;;;;;;5089379;28;20226;-77
2024/01/05 07:51:54;;;;;;;6.20;3.30;;;2.20;99.90;;;;;;5088625;28;20297;-78
2024/01/05 07:54:21;;;;;;;4.23;3.50;;;2.20;99.90;;;;;;5088939;28;20240;-78
2024/01/05 07:56:48;;;;;;;4.40;3.57;;;2.20;99.90;;;;;;5089030;28;20729;-77
2024/01/05 07:59:16;;;;;;;4.03;3.67;;;2.20;99.90;;;;;;5088576;28;20736;-77
2024/01/05 08:01:43;;;;;;;5.53;3.77;;;2.20;99.90;;;;;;5088024;28;20225;-77
2024/01/05 08:04:10;;;;;;;7.10;4.27;;;2.20;99.90;;;;;;5088768;28;20209;-77
2024/01/05 08:06:37;;;;;;;3.80;3.40;;;2.20;99.90;;;;;;5088482;28;20646;-78
2024/01/05 08:09:05;;;;;;;4.17;3.60;;;2.10;99.90;;;;;;5088250;28;20267;-77
2024/01/05 08:11:32;;;;;;;4.00;3.70;;;2.10;99.90;;;;;;5088747;28;20677;-77
2024/01/05 08:13:59;;;;;;;3.77;3.47;;;2.10;99.90;;;;;;5088538;28;20630;-78
2024/01/05 08:16:28;;;;;;;4.50;4.10;;;2.20;99.90;;;;;;5088390;28;20293;-77
2024/01/05 08:18:55;;;;;;;5.40;3.77;;;2.20;99.90;;;;;;5088227;28;20305;-77
2024/01/05 08:21:22;;;;;;;3.80;3.50;;;2.20;99.90;;;;;;5087835;28;20294;-77
2024/01/05 08:23:49;;;;;;;5.40;3.90;;;2.10;99.90;;;;;;5087092;28;20289;-77
2024/01/05 08:26:19;;;;;;;4.43;3.90;;;2.20;99.90;;;;;;5087829;28;20217;-77
2024/01/05 08:28:46;;;;;;;4.80;3.90;;;2.20;99.90;;;;;;5087961;28;20293;-78
2024/01/05 08:31:13;;;;;;;4.53;4.13;;;2.20;99.90;;;;;;5087654;28;20233;-78
2024/01/05 08:33:40;;;;;;;4.30;4.00;;;2.20;99.90;;;;;;5088238;28;20233;-77
2024/01/05 08:36:08;;;;;;;4.97;4.40;;;2.20;99.90;;;;;;5088072;28;20282;-78
2024/01/05 08:38:35;;;;;;;4.53;4.13;;;2.20;99.90;;;;;;5087906;28;20213;-77
2024/01/05 08:41:02;;;;;;;4.10;3.80;;;2.20;99.90;;;;;;5088290;28;20238;-77
2024/01/05 08:43:30;;;;;;;4.50;4.10;;;2.20;99.90;;;;;;5087980;28;20264;-77
2024/01/05 08:45:58;;;;;;;3.60;3.30;;;2.20;99.90;;;;;;5088018;28;20206;-77
2024/01/05 08:48:25;;;;;;;4.93;3.97;;;2.10;99.90;;;;;;5087865;28;20207;-78
2024/01/05 08:50:52;;;;;;;4.23;3.83;;;2.10;99.90;;;;;;5087627;28;20231;-79
2024/01/05 08:53:21;;;;;;;4.10;3.70;;;2.10;99.90;;;;;;5087894;28;20290;-78
2024/01/05 08:55:48;;;;;;;3.80;3.50;;;2.10;99.90;;;;;;5087728;28;20211;-77
2024/01/05 08:58:15;;;;;;;3.90;3.60;;;2.10;99.90;;;;;;5087665;28;20578;-78
2024/01/05 09:00:43;;;;;;;4.50;4.10;;;2.20;99.90;;;;;;5087416;28;20259;-77
2024/01/05 09:03:10;;;;;;;4.00;3.70;;;2.20;99.90;;;;;;5067263;28;20576;-78
2024/01/05 09:05:37;;;;;;;4.30;3.73;;;2.20;99.90;;;;;;5067974;28;20286;-78
2024/01/05 09:08:04;;;;;;;4.03;3.73;;;2.30;99.90;;;;;;5067211;28;20298;-78
2024/01/05 09:10:32;;;;;;;3.60;3.30;;;2.20;99.90;;;;;;5067231;28;20314;-78
2024/01/05 09:13:00;;;;;;;3.70;3.40;;;2.20;99.90;;;;;;5067416;28;20558;-79
2024/01/05 09:15:26;;;;;;;3.97;3.67;;;2.20;99.90;;;;;;5067533;28;20230;-77
2024/01/05 09:17:55;;;;;;;3.60;3.40;;;2.30;99.90;;;;;;5085747;28;20808;-77
2024/01/05 09:20:22;;;;;;;5.00;3.00;;;2.30;99.90;;;;;;5087600;28;20234;-78
2024/01/05 09:22:48;;;;;;;3.30;3.10;;;2.20;99.90;;;;;;5086954;28;20743;-77
2024/01/05 09:25:15;;;;;;;4.40;4.00;;;2.20;99.90;;;;;;5087444;28;20235;-77
2024/01/05 09:27:42;;;;;;;3.50;3.20;;;2.30;99.90;;;;;;5087908;28;20260;-78
2024/01/05 09:30:10;;;;;;;3.50;3.20;;;2.20;99.90;;;;;;5087173;28;20309;-77
2024/01/05 09:32:36;;;;;;;3.50;3.20;;;2.10;99.90;;;;;;5087392;28;20213;-77
2024/01/05 09:35:08;;;;;;;3.80;3.50;;;2.10;99.90;;;;;;5087274;28;20300;-77
2024/01/05 09:37:35;;;;;;;3.80;3.50;;;2.20;99.90;;;;;;5087153;28;20569;-77
2024/01/05 09:40:02;;;;;;;3.23;2.93;;;2.10;99.90;;;;;;5087606;28;20297;-77
2024/01/05 09:42:29;;;;;;;5.37;3.67;;;2.10;99.90;;;;;;5087060;28;20222;-77
2024/01/05 09:44:56;;;;;;;3.57;3.20;;;2.20;99.90;;;;;;5087108;28;20237;-78
2024/01/05 09:47:24;;;;;;;3.90;3.60;;;2.20;99.90;;;;;;5087480;28;20314;-78
2024/01/05 09:49:52;;;;;;;3.80;3.50;;;2.20;99.90;;;;;;5087235;28;20262;-78
2024/01/05 09:52:21;;;;;;;3.43;3.23;;;2.30;99.90;;;;;;5087451;28;20688;-77
2024/01/05 09:54:50;;;;;;;3.70;3.40;;;2.40;99.90;;;;;;5087217;28;20316;-77
2024/01/05 09:57:18;;;;;;;3.53;3.23;;;2.30;99.90;;;;;;5083636;28;20206;-78
2024/01/05 09:59:47;;;;;;;3.83;3.37;;;2.30;99.90;;;;;;5067265;28;20204;-77
2024/01/05 10:02:21;;;;;;;3.70;3.43;;;2.30;99.90;;;;;;5066742;28;20400;-77
2024/01/05 10:04:48;;;;;;;3.00;2.80;;;2.20;99.90;;;;;;5067359;28;20264;-77
2024/01/05 10:07:15;;;;;;;3.40;3.10;;;2.30;99.90;;;;;;5066787;28;20291;-77
2024/01/05 10:09:51;;;;;;;4.43;3.20;;;2.40;99.90;;;;;;5069782;28;20289;-77
2024/01/05 10:12:18;;;;;;;3.87;3.10;;;2.30;99.90;;;;;;5073365;28;20230;-77
2024/01/05 10:14:47;;;;;;;3.20;3.00;;;2.30;99.90;;;;;;5090787;28;20211;-77
2024/01/05 10:17:15;;;;;;;4.17;3.60;;;2.30;99.90;;;;;;5090695;28;20207;-77
2024/01/05 10:19:42;;;;;;;3.77;3.40;;;2.40;99.90;;;;;;5090824;28;20242;-77
2024/01/05 10:22:11;;;;;;;3.47;3.17;;;2.40;99.90;;;;;;5072482;28;20211;-77
2024/01/05 10:24:38;;;;;;;3.43;3.13;;;2.40;99.90;;;;;;5070359;28;20237;-77
2024/01/05 10:27:08;;;;;;;3.97;3.40;;;2.40;99.90;;;;;;5070309;28;20651;-77
2024/01/05 10:29:37;;;;;;;3.07;2.87;;;2.30;99.90;;;;;;5071948;28;20288;-77
2024/01/05 10:32:14;;;;;;;3.23;2.93;;;2.40;99.90;;;;;;5090780;28;20313;-77
2024/01/05 10:34:42;;;;;;;4.60;3.60;;;2.40;99.90;;;;;;5090930;28;20197;-77
2024/01/05 10:37:10;;;;;;;2.90;2.70;;;2.40;99.90;;;;;;5090537;28;20207;-77
2024/01/05 10:39:39;;;;;;;2.93;2.73;;;2.40;99.90;;;;;;5090234;28;20502;-77
2024/01/05 10:42:21;;;;;;;3.43;3.13;;;2.40;99.90;;;;;;5090501;28;20226;-77
2024/01/05 10:44:51;;;;;;;3.23;3.03;;;2.40;99.90;;;;;;5091033;28;20234;-77
2024/01/05 10:47:20;;;;;;;3.07;2.87;;;2.40;99.90;;;;;;5089731;28;20689;-77
2024/01/05 10:49:50;;;;;;;3.80;2.93;;;2.50;99.90;;;;;;5089984;28;20575;-77
2024/01/05 10:52:17;;;;;;;3.40;3.10;;;2.40;99.90;;;;;;5090256;28;20302;-77
2024/01/05 10:54:46;;;;;;;3.37;3.00;;;2.40;99.90;;;;;;5090018;28;20210;-77
2024/01/05 10:57:14;;;;;;;3.10;2.90;;;2.40;99.90;;;;;;5089998;28;20213;-78
2024/01/05 10:59:45;;;;;;;3.40;3.10;;;2.40;99.90;;;;;;5089590;28;20751;-77
2024/01/05 11:02:19;;;;;;;2.93;2.73;;;2.40;99.90;;;;;;5089836;28;20731;-77
2024/01/05 11:04:48;;;;;;;3.43;3.13;;;2.40;99.90;;;;;;5090393;28;20195;-77
2024/01/05 11:07:17;;;;;;;3.23;2.97;;;2.50;99.90;;;;;;5089633;28;20298;-77
2024/01/05 11:09:54;;;;;;;3.07;2.80;;;2.50;99.90;;;;;;5089099;28;20246;-77
2024/01/05 11:12:32;;;;;;;2.80;2.60;;;2.40;99.90;;;;;;5089277;28;20295;-78
2024/01/05 11:15:20;;;;;;;2.80;2.60;;;2.40;99.90;;;;;;5089625;28;20249;-77
2024/01/05 11:18:10;;;;;;;3.23;2.90;;;2.40;99.90;;;;;;5089267;28;20190;-78
2024/01/05 11:20:56;;;;;;;3.10;2.90;;;2.40;99.90;;;;;;5088627;28;20274;-78
2024/01/05 11:23:24;;;;;;;2.80;2.60;;;2.40;99.90;;;;;;5089485;28;20195;-78
2024/01/05 11:25:53;;;;;;;4.00;2.67;;;2.40;99.90;;;;;;5089590;28;20202;-78
2024/01/05 11:28:34;;;;;;;2.90;2.70;;;2.40;99.90;;;;;;5089453;28;20259;-77
2024/01/05 11:31:02;;;;;;;3.30;3.00;;;2.40;99.90;;;;;;5089410;28;20230;-78
2024/01/05 11:33:46;;;;;;;2.70;2.60;;;2.40;99.90;;;;;;5088824;28;20242;-78
2024/01/05 11:36:13;;;;;;;2.87;2.67;;;2.50;99.90;;;;;;5084765;28;20260;-77
2024/01/05 11:38:44;;;;;;;3.10;2.90;;;2.50;99.90;;;;;;5088925;28;20198;-77
2024/01/05 11:41:18;;;;;;;2.87;2.63;;;2.50;99.90;;;;;;5089018;28;20198;-77
2024/01/05 11:43:44;;;;;;;3.07;2.83;;;2.50;99.90;;;;;;5089172;28;20206;-77
2024/01/05 11:46:13;;;;;;;3.27;2.97;;;2.50;99.90;;;;;;5089112;28;20233;-77
2024/01/05 11:48:47;;;;;;;3.10;2.90;;;2.40;99.90;;;;;;5088757;28;20203;-77
2024/01/05 11:51:14;;;;;;;3.00;2.80;;;2.30;99.90;;;;;;5088775;28;20222;-77
2024/01/05 11:53:44;;;;;;;2.83;2.73;;;2.40;99.90;;;;;;5088734;28;20293;-77
2024/01/05 11:56:17;;;;;;;3.30;3.03;;;2.40;99.90;;;;;;5088694;28;20301;-78
2024/01/05 11:58:46;;;;;;;3.30;2.53;;;2.40;99.90;;;;;;5088798;28;20199;-77
2024/01/05 12:01:16;;;;;;;3.10;2.90;;;2.30;99.90;;;;;;5088389;28;20230;-77
2024/01/05 12:03:44;;;;;;;2.77;2.57;;;2.30;99.90;;;;;;5088640;28;20223;-77
2024/01/05 12:06:11;;;;;;;2.97;2.77;;;2.30;99.90;;;;;;5088549;28;20203;-77
2024/01/05 12:08:39;;;;;;;3.00;2.80;;;2.30;99.90;;;;;;5088267;28;20313;-77
2024/01/05 12:11:09;;;;;;;2.70;2.50;;;2.30;99.90;;;;;;5088273;28;20345;-78
2024/01/05 12:13:37;;;;;;;2.80;2.60;;;2.30;99.90;;;;;;5088253;28;20199;-77
2024/01/05 12:16:05;;;;;;;3.07;2.87;;;2.30;99.90;;;;;;5088267;28;20264;-78
2024/01/05 12:18:34;;;;;;;3.37;3.07;;;2.30;99.90;;;;;;5088355;28;20309;-77
2024/01/05 12:21:03;;;;;;;3.20;2.97;;;2.40;99.90;;;;;;5088511;28;20302;-77
2024/01/05 12:23:30;;;;;;;3.60;3.30;;;2.30;99.90;;;;;;5088087;28;20236;-77
2024/01/05 12:26:02;;;;;;;2.93;2.73;;;2.30;99.90;;;;;;5088504;28;20205;-77
2024/01/05 12:28:30;;;;;;;3.50;3.30;;;2.40;99.90;;;;;;5088266;28;20202;-77
2024/01/05 12:30:58;;;;;;;3.07;2.87;;;2.40;99.90;;;;;;5087139;28;20238;-77
2024/01/05 12:33:26;;;;;;;3.00;2.80;;;2.40;99.90;;;;;;5087978;28;20217;-77
2024/01/05 12:35:55;;;;;;;2.80;2.60;;;2.40;99.90;;;;;;5088065;28;20665;-77
2024/01/05 12:38:25;;;;;;;3.57;3.27;;;2.30;99.90;;;;;;5087522;28;20956;-77
2024/01/05 12:40:53;;;;;;;3.23;2.93;;;2.30;99.90;;;;;;5088417;28;20242;-77
2024/01/05 12:43:20;;;;;;;3.10;2.90;;;2.30;99.90;;;;;;5087982;28;20198;-77
2024/01/05 12:45:49;;;;;;;3.23;3.03;;;2.30;99.90;;;;;;5087641;28;20221;-77
2024/01/05 12:48:17;;;;;;;3.27;3.07;;;2.40;99.90;;;;;;5088360;28;20225;-78
2024/01/05 12:50:45;;;;;;;3.10;2.90;;;2.30;99.90;;;;;;5087879;28;20667;-77
2024/01/05 12:53:20;;;;;;;3.40;3.20;;;2.30;99.90;;;;;;5087226;28;20207;-77
2024/01/05 12:55:47;;;;;;;3.33;3.13;;;2.30;99.90;;;;;;5087552;28;20296;-77
2024/01/05 12:58:14;;;;;;;3.50;3.30;;;2.30;99.90;;;;;;5087650;28;20612;-78
2024/01/05 13:00:46;;;;;;;3.10;2.80;;;2.30;99.90;;;;;;5087846;28;20347;-78
2024/01/05 13:03:19;;;;;;;3.50;3.20;;;2.30;99.90;;;;;;5067526;28;20198;-78